createdAt,value
2018-06-08T00:01:46.610Z,51.96
2018-06-08T00:04:15.553Z,51.95
2018-06-08T00:06:44.412Z,52.12
2018-06-08T00:09:13.317Z,52.04
2018-06-08T00:11:42.207Z,52.36
2018-06-08T00:14:11.105Z,52.02
2018-06-08T00:16:41.216Z,52.03
2018-06-08T00:19:10.107Z,52.33
2018-06-08T00:21:39.000Z,52.12
2018-06-08T00:24:07.949Z,52.04
2018-06-08T00:26:36.889Z,51.47
2018-06-08T00:29:05.801Z,51.68
2018-06-08T00:31:34.807Z,51.48
2018-06-08T00:34:03.652Z,51.22
2018-06-08T00:36:32.532Z,51.45
2018-06-08T00:39:01.417Z,51.66
2018-06-08T00:41:30.379Z,51.74
2018-06-08T00:43:59.275Z,51.47
2018-06-08T00:46:28.077Z,51.88
2018-06-08T00:48:57.010Z,51.54
2018-06-08T00:51:25.918Z,52.10
2018-06-08T00:53:54.809Z,52.42
2018-06-08T00:57:05.600Z,52.20
2018-06-08T00:59:34.491Z,52.20
2018-06-08T01:02:03.357Z,52.47
2018-06-08T01:04:32.229Z,52.69
2018-06-08T01:07:01.121Z,52.64
2018-06-08T01:09:30.030Z,52.89
2018-06-08T01:11:58.920Z,53.10
2018-06-08T01:14:34.535Z,53.31
2018-06-08T01:17:03.489Z,53.05
2018-06-08T01:19:33.074Z,53.69
2018-06-08T01:22:02.352Z,53.92
2018-06-08T01:24:31.488Z,53.99
2018-06-08T01:27:00.386Z,53.99
2018-06-08T01:29:29.442Z,54.23
2018-06-08T01:31:58.311Z,54.32
2018-06-08T01:34:27.165Z,54.27
2018-06-08T01:36:56.038Z,53.60
2018-06-08T01:39:24.905Z,54.24
2018-06-08T01:41:53.864Z,54.60
2018-06-08T01:44:22.747Z,54.98
2018-06-08T01:46:51.581Z,54.82
2018-06-08T01:49:20.466Z,54.75
2018-06-08T01:51:49.338Z,54.78
2018-06-08T01:54:18.222Z,55.14
2018-06-08T01:56:47.085Z,54.81
2018-06-08T01:59:15.940Z,55.50
2018-06-08T02:01:44.832Z,55.60
2018-06-08T02:04:13.719Z,55.64
2018-06-08T02:06:42.626Z,56.24
2018-06-08T02:09:11.488Z,56.14
2018-06-08T02:11:40.372Z,55.90
2018-06-08T02:14:09.236Z,55.96
2018-06-08T02:16:38.109Z,55.06
2018-06-08T02:19:06.972Z,55.69
2018-06-08T02:21:35.879Z,55.61
2018-06-08T02:24:04.746Z,56.06
2018-06-08T02:26:33.632Z,55.96
2018-06-08T02:29:02.511Z,56.07
2018-06-08T02:31:31.412Z,56.23
2018-06-08T02:34:00.326Z,56.50
2018-06-08T02:36:29.194Z,56.80
2018-06-08T02:38:58.073Z,56.82
2018-06-08T02:41:26.930Z,56.53
2018-06-08T02:43:55.794Z,56.61
2018-06-08T02:46:24.667Z,57.06
2018-06-08T02:48:53.568Z,57.06
2018-06-08T02:51:22.431Z,57.45
2018-06-08T02:53:51.375Z,57.34
2018-06-08T02:56:20.253Z,56.23
2018-06-08T02:58:49.133Z,57.33
2018-06-08T03:01:18.015Z,57.90
2018-06-08T03:03:46.914Z,58.46
2018-06-08T03:06:15.797Z,58.78
2018-06-08T03:08:44.834Z,59.58
2018-06-08T03:11:13.760Z,60.80
2018-06-08T03:13:42.671Z,61.88
2018-06-08T03:16:11.581Z,62.52
2018-06-08T03:18:40.442Z,62.99
2018-06-08T03:21:09.396Z,62.95
2018-06-08T03:23:38.391Z,62.65
2018-06-08T03:26:07.233Z,62.74
2018-06-08T03:28:36.107Z,62.97
2018-06-08T03:31:05.009Z,63.80
2018-06-08T03:33:33.897Z,64.02
2018-06-08T03:36:02.875Z,63.90
2018-06-08T03:38:31.705Z,64.73
2018-06-08T03:41:00.629Z,64.70
2018-06-08T03:43:29.503Z,65.17
2018-06-08T03:45:58.454Z,65.81
2018-06-08T03:48:27.294Z,66.39
2018-06-08T03:50:56.143Z,65.85
2018-06-08T03:53:25.045Z,65.98
2018-06-08T03:55:54.038Z,65.98
2018-06-08T03:58:22.878Z,66.23
2018-06-08T04:00:51.770Z,66.42
2018-06-08T04:03:20.655Z,66.43
2018-06-08T04:05:49.631Z,66.11
2018-06-08T04:08:18.519Z,66.56
2018-06-08T04:10:47.438Z,66.84
2018-06-08T04:13:16.283Z,67.10
2018-06-08T04:15:45.216Z,66.71
2018-06-08T04:18:14.131Z,66.65
2018-06-08T04:20:42.991Z,66.40
2018-06-08T04:23:12.004Z,67.12
2018-06-08T04:25:40.914Z,67.22
2018-06-08T04:28:09.729Z,68.32
2018-06-08T04:30:38.605Z,68.37
2018-06-08T04:33:07.495Z,68.57
2018-06-08T04:35:36.349Z,68.58
2018-06-08T04:38:05.273Z,68.56
2018-06-08T04:40:34.131Z,69.07
2018-06-08T04:43:03.104Z,69.04
2018-06-08T04:45:31.994Z,68.13
2018-06-08T04:48:00.831Z,69.08
2018-06-08T04:50:29.724Z,69.27
2018-06-08T04:52:58.596Z,69.99
2018-06-08T04:55:27.503Z,70.25
2018-06-08T04:57:56.408Z,70.27
2018-06-08T05:00:25.302Z,70.61
2018-06-08T05:02:54.173Z,70.56
2018-06-08T05:05:23.029Z,71.10
2018-06-08T05:07:51.883Z,71.41
2018-06-08T05:10:20.742Z,70.66
2018-06-08T05:12:49.605Z,71.63
2018-06-08T05:15:18.465Z,71.74
2018-06-08T05:17:47.357Z,71.25
2018-06-08T05:20:16.378Z,72.49
2018-06-08T05:22:45.264Z,73.27
2018-06-08T05:25:14.145Z,73.68
2018-06-08T05:27:43.005Z,72.55
2018-06-08T05:30:12.426Z,74.01
2018-06-08T05:32:41.313Z,73.42
2018-06-08T05:35:10.208Z,73.27
2018-06-08T05:37:39.084Z,73.51
2018-06-08T05:40:07.985Z,73.86
2018-06-08T05:42:36.906Z,74.16
2018-06-08T05:45:05.747Z,74.20
2018-06-08T05:47:34.606Z,75.58
2018-06-08T05:50:03.462Z,76.12
2018-06-08T05:52:32.338Z,76.50
2018-06-08T05:55:01.224Z,76.30
2018-06-08T05:57:30.069Z,75.29
2018-06-08T05:59:58.967Z,74.61
2018-06-08T06:02:28.852Z,75.24
2018-06-08T06:04:57.715Z,74.35
2018-06-08T06:07:44.262Z,75.91
2018-06-08T06:10:13.237Z,76.60
2018-06-08T06:12:42.140Z,77.06
2018-06-08T06:15:11.092Z,77.13
2018-06-08T06:17:40.048Z,75.72
2018-06-08T06:20:08.990Z,76.86
2018-06-08T06:22:37.884Z,76.43
2018-06-08T06:25:06.803Z,76.75
2018-06-08T06:27:35.770Z,76.93
2018-06-08T06:30:05.668Z,76.97
2018-06-08T06:32:34.486Z,77.18
2018-06-08T06:35:03.423Z,76.93
2018-06-08T06:37:32.504Z,76.53
2018-06-08T06:40:01.417Z,76.62
2018-06-08T06:42:30.381Z,76.40
2018-06-08T06:44:59.347Z,75.73
2018-06-08T06:47:28.208Z,75.89
2018-06-08T06:49:57.093Z,76.59
2018-06-08T06:52:26.018Z,76.79
2018-06-08T06:54:54.991Z,76.76
2018-06-08T06:57:23.867Z,76.13
2018-06-08T06:59:52.812Z,76.19
2018-06-08T07:02:21.694Z,76.66
2018-06-08T07:04:50.645Z,76.15
2018-06-08T07:07:19.606Z,74.80
2018-06-08T07:09:48.511Z,76.18
2018-06-08T07:12:17.508Z,76.56
2018-06-08T07:14:46.478Z,77.01
2018-06-08T07:17:15.512Z,76.49
2018-06-08T07:19:44.497Z,76.69
2018-06-08T07:22:13.396Z,76.80
2018-06-08T07:24:42.325Z,75.75
2018-06-08T07:27:11.258Z,77.17
2018-06-08T07:29:40.232Z,76.38
2018-06-08T07:32:09.137Z,76.42
2018-06-08T07:34:38.022Z,77.21
2018-06-08T07:37:06.998Z,76.45
2018-06-08T07:39:35.835Z,76.39
2018-06-08T07:42:04.789Z,76.53
2018-06-08T07:44:33.711Z,76.84
2018-06-08T07:47:02.691Z,76.98
2018-06-08T07:49:31.525Z,76.32
2018-06-08T07:52:00.470Z,76.65
2018-06-08T07:54:29.425Z,76.57
2018-06-08T07:57:02.252Z,76.41
2018-06-08T07:59:31.764Z,76.17
2018-06-08T08:02:00.821Z,77.33
2018-06-08T08:04:29.845Z,78.25
2018-06-08T08:06:58.825Z,78.92
2018-06-08T08:09:27.859Z,78.40
2018-06-08T08:11:56.972Z,78.85
2018-06-08T08:14:26.016Z,79.05
2018-06-08T08:16:54.909Z,78.68
2018-06-08T08:19:24.015Z,78.04
2018-06-08T08:21:52.914Z,78.28
2018-06-08T08:24:21.794Z,79.15
2018-06-08T08:26:50.715Z,78.66
2018-06-08T08:29:19.636Z,78.67
2018-06-08T08:31:48.732Z,78.41
2018-06-08T08:34:17.716Z,78.95
2018-06-08T08:36:46.613Z,79.30
2018-06-08T08:39:15.607Z,79.95
2018-06-08T08:41:44.666Z,79.89
2018-06-08T08:44:13.528Z,78.96
2018-06-08T08:46:42.470Z,78.45
2018-06-08T08:49:11.386Z,77.57
2018-06-08T08:51:40.304Z,77.60
2018-06-08T08:54:09.186Z,76.76
2018-06-08T08:56:38.088Z,77.48
2018-06-08T08:59:06.970Z,78.15
2018-06-08T09:01:35.845Z,77.98
2018-06-08T09:04:04.943Z,78.21
2018-06-08T09:06:33.855Z,77.59
2018-06-08T09:09:02.751Z,78.15
2018-06-08T09:11:31.692Z,78.19
2018-06-08T09:14:00.580Z,77.85
2018-06-08T09:16:29.502Z,77.86
2018-06-08T09:18:58.521Z,78.42
2018-06-08T09:21:27.454Z,78.17
2018-06-08T09:23:56.654Z,78.06
2018-06-08T09:26:25.774Z,78.17
2018-06-08T09:28:54.746Z,77.85
2018-06-08T09:31:23.765Z,76.64
2018-06-08T09:33:52.674Z,77.97
2018-06-08T09:36:21.554Z,78.04
2018-06-08T09:38:50.560Z,77.73
2018-06-08T09:41:19.460Z,77.34
2018-06-08T09:43:48.367Z,76.76
2018-06-08T09:46:17.317Z,76.85
2018-06-08T09:48:46.212Z,77.09
2018-06-08T09:51:15.253Z,77.41
2018-06-08T09:53:44.106Z,77.70
2018-06-08T09:56:13.027Z,76.17
2018-06-08T09:58:41.927Z,77.00
2018-06-08T10:01:10.874Z,77.82
2018-06-08T10:03:39.856Z,77.61
2018-06-08T10:06:08.860Z,78.04
2018-06-08T10:08:37.967Z,77.93
2018-06-08T10:11:06.913Z,77.63
2018-06-08T10:13:35.942Z,78.23
2018-06-08T10:16:06.964Z,78.43
2018-06-08T10:18:33.747Z,78.90
2018-06-08T10:21:02.727Z,78.23
2018-06-08T10:23:31.616Z,78.02
2018-06-08T10:26:00.647Z,77.75
2018-06-08T10:28:29.731Z,77.99
2018-06-08T10:30:58.614Z,78.27
2018-06-08T10:33:27.496Z,78.10
2018-06-08T10:35:56.365Z,78.80
2018-06-08T10:38:25.280Z,79.28
2018-06-08T10:40:54.609Z,79.79
2018-06-08T10:43:23.477Z,80.12
2018-06-08T10:45:52.385Z,80.08
2018-06-08T10:48:21.281Z,79.67
2018-06-08T10:50:50.208Z,80.40
2018-06-08T10:53:19.083Z,79.86
2018-06-08T10:55:47.990Z,81.07
2018-06-08T10:58:16.996Z,81.15
2018-06-08T11:00:45.875Z,80.54
2018-06-08T11:03:14.782Z,79.00
2018-06-08T11:05:44.170Z,78.88
2018-06-08T11:08:13.196Z,78.61
2018-06-08T11:10:42.148Z,77.96
2018-06-08T11:13:11.079Z,78.16
2018-06-08T11:15:40.031Z,77.41
2018-06-08T11:18:08.968Z,77.36
2018-06-08T11:20:37.954Z,76.82
2018-06-08T11:23:06.868Z,76.48
2018-06-08T11:25:35.754Z,75.89
2018-06-08T11:28:04.644Z,76.19
2018-06-08T11:30:33.541Z,75.94
2018-06-08T11:33:02.428Z,75.69
2018-06-08T11:35:31.285Z,75.35
2018-06-08T11:38:00.219Z,75.02
2018-06-08T11:40:29.214Z,74.38
2018-06-08T11:42:58.035Z,74.16
2018-06-08T11:45:27.037Z,74.05
2018-06-08T11:47:55.922Z,72.71
2018-06-08T11:50:26.304Z,71.01
2018-06-08T11:52:53.736Z,70.71
2018-06-08T11:55:22.578Z,68.52
2018-06-08T11:57:51.425Z,69.96
2018-06-08T12:00:20.340Z,68.51
2018-06-08T12:02:49.283Z,68.58
2018-06-08T12:05:18.140Z,70.33
2018-06-08T12:07:47.049Z,69.25
2018-06-08T12:10:15.894Z,68.36
2018-06-08T12:12:45.010Z,67.89
2018-06-08T12:15:13.774Z,67.77
2018-06-08T12:17:42.621Z,67.81
2018-06-08T12:20:11.552Z,66.23
2018-06-08T12:22:40.566Z,65.19
2018-06-08T12:25:09.441Z,64.78
2018-06-08T12:27:38.347Z,63.31
2018-06-08T12:30:07.180Z,63.42
2018-06-08T12:32:36.117Z,62.58
2018-06-08T12:35:05.051Z,62.30
2018-06-08T12:37:33.872Z,64.51
2018-06-08T12:40:02.780Z,64.59
2018-06-08T12:42:31.665Z,64.32
2018-06-08T12:45:00.601Z,63.22
2018-06-08T12:47:29.471Z,64.29
2018-06-08T12:49:58.309Z,63.77
2018-06-08T12:52:27.255Z,63.25
2018-06-08T12:54:56.106Z,64.01
2018-06-08T12:57:24.974Z,65.84
2018-06-08T12:59:54.074Z,65.87
2018-06-08T13:02:22.991Z,66.28
2018-06-08T13:04:51.940Z,65.21
2018-06-08T13:07:20.868Z,63.87
2018-06-08T13:09:49.734Z,65.98
2018-06-08T13:12:18.593Z,65.77
2018-06-08T13:14:47.540Z,64.08
2018-06-08T13:17:16.385Z,63.82
2018-06-08T13:19:45.241Z,63.91
2018-06-08T13:22:14.341Z,63.24
2018-06-08T13:24:43.113Z,62.34
2018-06-08T13:27:11.984Z,62.22
2018-06-08T13:29:40.968Z,61.92
2018-06-08T13:32:09.861Z,61.96
2018-06-08T13:34:38.826Z,63.29
2018-06-08T13:37:07.729Z,61.76
2018-06-08T13:39:36.784Z,62.32
2018-06-08T13:42:07.101Z,63.49
2018-06-08T13:44:36.077Z,64.32
2018-06-08T13:47:05.400Z,64.11
2018-06-08T13:49:34.271Z,63.64
2018-06-08T13:52:03.357Z,63.78
2018-06-08T13:54:33.291Z,63.44
2018-06-08T13:57:02.635Z,63.18
2018-06-08T13:59:31.753Z,64.19
2018-06-08T14:02:01.661Z,62.92
2018-06-08T14:04:30.435Z,63.33
2018-06-08T14:06:59.364Z,64.20
2018-06-08T14:09:28.301Z,60.92
2018-06-08T14:11:57.300Z,62.28
2018-06-08T14:14:26.178Z,60.78
2018-06-08T14:16:55.128Z,61.67
2018-06-08T14:19:24.034Z,60.79
2018-06-08T14:21:53.134Z,59.61
2018-06-08T14:24:22.052Z,60.34
2018-06-08T14:26:51.025Z,59.63
2018-06-08T14:29:19.955Z,60.64
2018-06-08T14:31:48.883Z,62.34
2018-06-08T14:34:17.795Z,63.01
2018-06-08T14:36:46.754Z,64.42
2018-06-08T14:39:15.684Z,63.79
2018-06-08T14:41:44.576Z,64.38
2018-06-08T14:44:13.498Z,65.16
2018-06-08T14:46:42.430Z,66.06
2018-06-08T14:49:11.370Z,66.46
2018-06-08T14:51:40.357Z,66.69
2018-06-08T14:54:09.269Z,66.99
2018-06-08T14:56:38.192Z,66.39
2018-06-08T14:59:07.167Z,66.31
2018-06-08T15:01:36.111Z,66.48
2018-06-08T15:04:05.007Z,66.89
2018-06-08T15:06:33.975Z,66.96
2018-06-08T15:09:02.921Z,67.30
2018-06-08T15:11:31.856Z,66.16
2018-06-08T15:14:00.744Z,66.52
2018-06-08T15:16:29.720Z,65.72
2018-06-08T15:18:58.652Z,65.19
2018-06-08T15:21:27.583Z,65.31
2018-06-08T15:23:56.463Z,64.85
2018-06-08T15:26:25.490Z,64.24
2018-06-08T15:28:54.432Z,64.08
2018-06-08T15:31:23.411Z,64.06
2018-06-08T15:33:52.350Z,64.20
2018-06-08T15:36:21.266Z,64.24
2018-06-08T15:38:50.188Z,64.33
2018-06-08T15:41:19.146Z,65.15
2018-06-08T15:43:48.126Z,63.28
2018-06-08T15:46:17.006Z,61.73
2018-06-08T15:48:45.874Z,61.96
2018-06-08T15:51:14.829Z,62.67
2018-06-08T15:53:43.676Z,62.19
2018-06-08T15:56:12.694Z,61.70
2018-06-08T15:58:41.526Z,61.76
2018-06-08T16:01:10.516Z,60.99
2018-06-08T16:03:39.430Z,61.89
2018-06-08T16:06:08.487Z,62.27
2018-06-08T16:08:37.520Z,62.42
2018-06-08T16:11:06.419Z,62.90
2018-06-08T16:13:35.382Z,64.27
2018-06-08T16:16:04.356Z,64.61
2018-06-08T16:18:33.293Z,64.84
2018-06-08T16:21:02.260Z,65.59
2018-06-08T16:23:31.151Z,65.76
2018-06-08T16:26:00.174Z,66.40
2018-06-08T16:28:29.214Z,66.01
2018-06-08T16:30:58.204Z,65.93
2018-06-08T16:33:29.487Z,65.49
2018-06-08T16:35:58.367Z,65.98
2018-06-08T16:38:27.335Z,65.98
2018-06-08T16:40:56.345Z,65.77
2018-06-08T16:43:25.215Z,65.18
2018-06-08T16:45:54.161Z,65.71
2018-06-08T16:48:23.129Z,64.62
2018-06-08T16:50:52.103Z,64.83
2018-06-08T16:53:21.064Z,65.34
2018-06-08T16:55:50.158Z,64.61
2018-06-08T16:58:19.093Z,65.19
2018-06-08T17:00:47.979Z,65.82
2018-06-08T17:03:16.960Z,65.93
2018-06-08T17:05:45.856Z,66.20
2018-06-08T17:08:14.802Z,66.70
2018-06-08T17:10:46.029Z,66.84
2018-06-08T17:13:15.180Z,67.15
2018-06-08T17:15:44.158Z,67.35
2018-06-08T17:18:13.061Z,67.85
2018-06-08T17:20:41.964Z,67.91
2018-06-08T17:23:13.563Z,67.51
2018-06-08T17:25:42.522Z,67.18
2018-06-08T17:28:11.510Z,67.47
2018-06-08T17:30:40.496Z,67.75
2018-06-08T17:33:10.134Z,67.19
2018-06-08T17:35:39.377Z,67.37
2018-06-08T17:38:08.259Z,67.81
2018-06-08T17:40:37.230Z,68.22
2018-06-08T17:43:06.357Z,68.39
2018-06-08T17:45:36.996Z,68.66
2018-06-08T17:48:05.891Z,68.17
2018-06-08T17:50:34.849Z,68.15
2018-06-08T17:53:03.977Z,68.28
2018-06-08T17:55:32.847Z,68.54
2018-06-08T17:58:01.917Z,68.17
2018-06-08T18:00:30.885Z,68.28
2018-06-08T18:02:59.839Z,68.17
2018-06-08T18:05:28.709Z,68.23
2018-06-08T18:07:57.848Z,67.90
2018-06-08T18:10:27.039Z,68.27
2018-06-08T18:12:55.977Z,67.74
2018-06-08T18:15:25.015Z,67.40
2018-06-08T18:17:54.245Z,67.69
2018-06-08T18:20:22.990Z,66.99
2018-06-08T18:22:51.841Z,67.85
2018-06-08T18:25:20.790Z,68.46
2018-06-08T18:27:50.634Z,67.92
2018-06-08T18:30:19.626Z,69.00
2018-06-08T18:32:48.537Z,68.31
2018-06-08T18:35:17.572Z,67.98
2018-06-08T18:37:46.420Z,67.15
2018-06-08T18:40:15.424Z,67.41
2018-06-08T18:42:44.353Z,67.88
2018-06-08T18:45:13.431Z,68.15
2018-06-08T18:47:42.382Z,67.97
2018-06-08T18:50:11.205Z,67.96
2018-06-08T18:52:40.105Z,67.34
2018-06-08T18:55:09.073Z,67.56
2018-06-08T18:57:38.012Z,67.74
2018-06-08T19:00:06.911Z,67.22
2018-06-08T19:02:36.121Z,67.47
2018-06-08T19:05:05.074Z,67.81
2018-06-08T19:07:34.009Z,68.18
2018-06-08T19:10:03.009Z,68.49
2018-06-08T19:12:32.307Z,69.02
2018-06-08T19:15:01.329Z,68.34
2018-06-08T19:17:30.159Z,68.85
2018-06-08T19:20:00.911Z,69.21
2018-06-08T19:22:29.815Z,68.81
2018-06-08T19:24:58.747Z,68.88
2018-06-08T19:27:27.733Z,69.12
2018-06-08T19:29:56.854Z,69.10
2018-06-08T19:32:26.039Z,68.98
2018-06-08T19:34:54.921Z,69.29
2018-06-08T19:37:23.925Z,68.68
2018-06-08T19:39:54.352Z,68.98
2018-06-08T19:42:23.256Z,68.99
2018-06-08T19:44:52.303Z,69.27
2018-06-08T19:47:21.203Z,69.62
2018-06-08T19:49:50.197Z,69.49
2018-06-08T19:52:19.203Z,69.30
2018-06-08T19:54:48.083Z,70.11
2018-06-08T19:57:17.079Z,70.35
2018-06-08T19:59:46.100Z,70.53
2018-06-08T20:02:14.986Z,70.84
2018-06-08T20:04:43.884Z,70.91
2018-06-08T20:07:12.741Z,71.22
2018-06-08T20:09:41.740Z,71.51
2018-06-08T20:12:10.580Z,71.14
2018-06-08T20:14:39.454Z,71.17
2018-06-08T20:17:08.306Z,71.26
2018-06-08T20:19:37.226Z,71.43
2018-06-08T20:22:06.182Z,71.33
2018-06-08T20:24:35.274Z,71.09
2018-06-08T20:27:04.152Z,71.53
2018-06-08T20:29:33.148Z,71.39
2018-06-08T20:32:02.446Z,71.09
2018-06-08T20:34:31.312Z,71.43
2018-06-08T20:37:00.180Z,71.75
2018-06-08T20:39:29.135Z,71.51
2018-06-08T20:41:57.994Z,71.83
2018-06-08T20:44:26.913Z,72.43
2018-06-08T20:46:55.783Z,71.70
2018-06-08T20:49:24.634Z,71.74
2018-06-08T20:51:53.523Z,72.05
2018-06-08T20:54:22.896Z,72.49
2018-06-08T20:57:11.427Z,72.04
2018-06-08T20:59:40.378Z,72.23
2018-06-08T21:02:09.473Z,71.87
2018-06-08T21:04:38.313Z,72.31
2018-06-08T21:07:07.226Z,71.98
2018-06-08T21:09:36.100Z,71.89
2018-06-08T21:12:04.999Z,72.09
2018-06-08T21:14:33.985Z,71.43
2018-06-08T21:17:03.077Z,71.71
2018-06-08T21:19:31.915Z,72.44
2018-06-08T21:22:01.013Z,72.23
2018-06-08T21:24:30.116Z,72.37
2018-06-08T21:26:59.103Z,72.74
2018-06-08T21:29:28.120Z,73.08
2018-06-08T21:31:57.141Z,72.98
2018-06-08T21:34:26.228Z,72.94
2018-06-08T21:36:55.188Z,72.85
2018-06-08T21:39:24.175Z,73.19
2018-06-08T21:41:53.424Z,73.13
2018-06-08T21:44:22.457Z,72.83
2018-06-08T21:46:51.400Z,73.02
2018-06-08T21:49:20.440Z,72.88
2018-06-08T21:51:49.459Z,73.36
2018-06-08T21:54:18.810Z,73.09
2018-06-08T21:56:47.862Z,73.00
2018-06-08T21:59:16.968Z,73.05
2018-06-08T22:01:46.003Z,73.02
2018-06-08T22:04:14.974Z,72.64
2018-06-08T22:06:44.027Z,73.13
2018-06-08T22:09:15.915Z,72.92
2018-06-08T22:11:44.762Z,72.47
2018-06-08T22:14:13.728Z,73.55
2018-06-08T22:16:42.749Z,72.85
2018-06-08T22:19:11.637Z,73.28
2018-06-08T22:21:40.556Z,72.96
2018-06-08T22:24:09.514Z,73.39
2018-06-08T22:26:38.445Z,73.19
2018-06-08T22:29:07.348Z,73.14
2018-06-08T22:31:36.295Z,73.49
2018-06-08T22:34:05.355Z,72.94
2018-06-08T22:36:34.262Z,73.26
2018-06-08T22:39:03.213Z,73.32
2018-06-08T22:41:32.146Z,73.35
2018-06-08T22:44:01.090Z,73.32
2018-06-08T22:46:30.013Z,73.13
2018-06-08T22:48:58.978Z,73.29
2018-06-08T22:51:27.925Z,72.24
2018-06-08T22:53:56.876Z,72.89
2018-06-08T22:56:25.848Z,72.58
2018-06-08T22:58:54.778Z,72.62
2018-06-08T23:01:23.680Z,72.23
2018-06-08T23:03:52.718Z,72.33
2018-06-08T23:06:21.570Z,72.57
2018-06-08T23:08:50.484Z,72.66
2018-06-08T23:11:19.486Z,72.73
2018-06-08T23:13:48.402Z,72.90
2018-06-08T23:16:17.379Z,72.73
2018-06-08T23:18:46.176Z,73.05
2018-06-08T23:21:15.092Z,72.86
2018-06-08T23:23:43.970Z,72.54
2018-06-08T23:26:13.072Z,73.10
2018-06-08T23:28:42.006Z,72.71
2018-06-08T23:31:10.908Z,72.82
2018-06-08T23:33:39.778Z,73.22
2018-06-08T23:36:08.704Z,72.99
2018-06-08T23:38:37.669Z,73.45
2018-06-08T23:41:06.484Z,72.91
2018-06-08T23:43:35.371Z,73.14
2018-06-08T23:46:04.307Z,73.00
2018-06-08T23:48:33.256Z,72.95
2018-06-08T23:51:02.101Z,73.06
2018-06-08T23:53:30.985Z,72.62
2018-06-08T23:55:59.907Z,72.34
2018-06-08T23:58:28.867Z,73.25
